createdAt,value
2023-07-03T00:00:55.037Z,53.34
2023-07-03T00:01:55.165Z,53.32
2023-07-03T00:02:55.250Z,52.88
2023-07-03T00:03:55.267Z,52.78
2023-07-03T00:04:55.468Z,52.77
2023-07-03T00:05:55.373Z,53.24
2023-07-03T00:06:55.410Z,53.22
2023-07-03T00:07:55.477Z,53.09
2023-07-03T00:08:55.512Z,53.01
2023-07-03T00:09:55.585Z,53.05
2023-07-03T00:10:55.640Z,53.33
2023-07-03T00:11:55.698Z,53.52
2023-07-03T00:12:55.751Z,53.27
2023-07-03T00:13:55.858Z,53.14
2023-07-03T00:14:55.891Z,53.33
2023-07-03T00:15:55.939Z,53.38
2023-07-03T00:16:56.061Z,53.52
2023-07-03T00:17:56.146Z,53.45
2023-07-03T00:18:56.133Z,53.39
2023-07-03T00:19:56.166Z,53.29
2023-07-03T00:20:56.204Z,53.02
2023-07-03T00:21:56.213Z,52.91
2023-07-03T00:22:56.294Z,53.05
2023-07-03T00:23:56.401Z,53.23
2023-07-03T00:24:56.359Z,53.36
2023-07-03T00:25:56.365Z,53.38
2023-07-03T00:26:56.342Z,53.44
2023-07-03T00:27:56.345Z,53.53
2023-07-03T00:28:56.379Z,53.57
2023-07-03T00:29:56.334Z,53.74
2023-07-03T00:30:56.325Z,53.75
2023-07-03T00:31:56.442Z,53.83
2023-07-03T00:32:56.357Z,53.81
2023-07-03T00:33:56.318Z,53.92
2023-07-03T00:34:56.410Z,54.00
2023-07-03T00:35:56.418Z,54.12
2023-07-03T00:36:56.429Z,54.31
2023-07-03T00:37:56.426Z,54.29
2023-07-03T00:38:56.456Z,54.28
2023-07-03T00:39:56.505Z,54.43
2023-07-03T00:40:56.511Z,54.43
2023-07-03T00:41:56.499Z,54.70
2023-07-03T00:42:56.522Z,54.69
2023-07-03T00:43:56.529Z,54.56
2023-07-03T00:44:56.558Z,54.54
2023-07-03T00:45:56.601Z,54.46
2023-07-03T00:46:56.595Z,54.54
2023-07-03T00:47:56.648Z,54.54
2023-07-03T00:48:56.661Z,54.85
2023-07-03T00:49:56.631Z,54.80
2023-07-03T00:50:56.678Z,54.93
2023-07-03T00:51:56.721Z,55.12
2023-07-03T00:52:56.730Z,55.07
2023-07-03T00:53:56.746Z,55.15
2023-07-03T00:54:56.813Z,55.27
2023-07-03T00:55:56.821Z,55.22
2023-07-03T00:56:56.852Z,55.17
2023-07-03T00:57:56.860Z,55.02
2023-07-03T00:58:56.908Z,55.06
2023-07-03T00:59:56.904Z,55.02
2023-07-03T01:00:56.994Z,55.56
2023-07-03T01:01:57.114Z,55.33
2023-07-03T01:02:57.081Z,55.22
2023-07-03T01:03:57.062Z,55.15
2023-07-03T01:04:57.277Z,55.17
2023-07-03T01:05:57.317Z,55.11
2023-07-03T01:06:57.196Z,55.34
2023-07-03T01:07:57.258Z,55.40
2023-07-03T01:08:57.282Z,55.51
2023-07-03T01:09:57.316Z,55.41
2023-07-03T01:10:57.349Z,54.93
2023-07-03T01:11:57.415Z,54.60
2023-07-03T01:12:57.464Z,54.89
2023-07-03T01:13:57.480Z,54.67
2023-07-03T01:14:57.484Z,54.69
2023-07-03T01:15:57.573Z,54.84
2023-07-03T01:16:57.614Z,54.74
2023-07-03T01:17:57.712Z,54.44
2023-07-03T01:18:57.686Z,54.33
2023-07-03T01:19:57.696Z,54.28
2023-07-03T01:20:57.745Z,54.64
2023-07-03T01:21:57.772Z,54.89
2023-07-03T01:22:57.825Z,54.77
2023-07-03T01:23:57.881Z,54.95
2023-07-03T01:24:57.934Z,54.77
2023-07-03T01:25:57.983Z,54.53
2023-07-03T01:26:58.092Z,54.88
2023-07-03T01:27:58.101Z,54.89
2023-07-03T01:28:58.173Z,54.74
2023-07-03T01:29:58.217Z,54.95
2023-07-03T01:30:58.280Z,54.88
2023-07-03T01:31:58.419Z,54.69
2023-07-03T01:32:58.535Z,54.90
2023-07-03T01:33:58.451Z,54.45
2023-07-03T01:34:58.519Z,54.23
2023-07-03T01:35:58.577Z,54.03
2023-07-03T01:36:58.621Z,54.14
2023-07-03T01:37:58.665Z,54.32
2023-07-03T01:38:58.759Z,53.68
2023-07-03T01:39:58.784Z,53.42
2023-07-03T01:40:58.854Z,53.67
2023-07-03T01:41:58.937Z,53.92
2023-07-03T01:42:58.999Z,53.89
2023-07-03T01:43:59.052Z,53.94
2023-07-03T01:44:59.093Z,53.81
2023-07-03T01:45:59.134Z,53.49
2023-07-03T01:46:59.244Z,53.70
2023-07-03T01:47:59.269Z,53.65
2023-07-03T01:48:59.314Z,53.90
2023-07-03T01:49:59.361Z,54.02
2023-07-03T01:50:59.389Z,54.30
2023-07-03T01:51:59.450Z,54.27
2023-07-03T01:52:59.501Z,54.30
2023-07-03T01:53:59.564Z,54.37
2023-07-03T01:54:59.615Z,54.67
2023-07-03T01:55:59.708Z,54.72
2023-07-03T01:56:59.761Z,54.88
2023-07-03T01:57:59.878Z,54.48
2023-07-03T01:58:59.849Z,54.31
2023-07-03T01:59:59.927Z,54.06
2023-07-03T02:01:00.042Z,53.92
2023-07-03T02:02:00.060Z,54.14
2023-07-03T02:03:00.192Z,53.86
2023-07-03T02:04:00.123Z,54.02
2023-07-03T02:05:00.269Z,54.10
2023-07-03T02:06:00.256Z,54.29
2023-07-03T02:07:00.319Z,53.96
2023-07-03T02:08:00.330Z,54.01
2023-07-03T02:09:00.437Z,54.17
2023-07-03T02:10:00.493Z,54.04
2023-07-03T02:11:00.577Z,53.97
2023-07-03T02:12:00.627Z,53.99
2023-07-03T02:13:00.692Z,54.04
2023-07-03T02:14:00.724Z,54.23
2023-07-03T02:15:00.773Z,54.38
2023-07-03T02:16:00.858Z,54.32
2023-07-03T02:17:01.054Z,54.30
2023-07-03T02:18:00.996Z,54.45
2023-07-03T02:19:01.029Z,54.25
2023-07-03T02:20:01.100Z,54.51
2023-07-03T02:21:01.150Z,54.90
2023-07-03T02:22:01.240Z,54.61
2023-07-03T02:23:01.329Z,54.82
2023-07-03T02:24:01.305Z,55.10
2023-07-03T02:25:01.404Z,54.89
2023-07-03T02:26:01.488Z,54.92
2023-07-03T02:27:01.536Z,54.92
2023-07-03T02:28:01.553Z,54.67
2023-07-03T02:29:01.613Z,54.44
2023-07-03T02:30:01.693Z,54.72
2023-07-03T02:31:01.802Z,54.59
2023-07-03T02:32:01.802Z,54.55
2023-07-03T02:33:01.874Z,54.63
2023-07-03T02:34:01.882Z,54.53
2023-07-03T02:35:01.994Z,54.61
2023-07-03T02:36:01.986Z,55.18
2023-07-03T02:37:02.011Z,55.07
2023-07-03T02:38:02.065Z,55.14
2023-07-03T02:39:02.160Z,55.42
2023-07-03T02:40:02.181Z,55.20
2023-07-03T02:41:02.295Z,54.72
2023-07-03T02:42:02.305Z,54.68
2023-07-03T02:43:02.363Z,54.92
2023-07-03T02:44:02.394Z,54.74
2023-07-03T02:45:02.472Z,54.52
2023-07-03T02:46:02.527Z,54.23
2023-07-03T02:47:02.648Z,54.55
2023-07-03T02:48:02.712Z,54.62
2023-07-03T02:49:02.718Z,54.67
2023-07-03T02:50:02.880Z,55.10
2023-07-03T02:51:02.900Z,55.19
2023-07-03T02:52:02.877Z,54.96
2023-07-03T02:53:02.943Z,54.96
2023-07-03T02:54:03.021Z,55.07
2023-07-03T02:55:03.081Z,55.09
2023-07-03T02:56:03.161Z,54.97
2023-07-03T02:57:03.244Z,54.96
2023-07-03T02:58:03.277Z,54.48
2023-07-03T02:59:03.368Z,54.19
2023-07-03T03:00:03.391Z,54.26
2023-07-03T03:01:03.453Z,54.42
2023-07-03T03:02:03.509Z,54.48
2023-07-03T03:03:03.708Z,54.53
2023-07-03T03:04:03.638Z,54.62
2023-07-03T03:05:03.743Z,54.97
2023-07-03T03:06:03.754Z,54.92
2023-07-03T03:07:03.792Z,54.72
2023-07-03T03:08:03.877Z,54.85
2023-07-03T03:09:03.936Z,55.20
2023-07-03T03:10:03.977Z,53.94
2023-07-03T03:11:04.097Z,53.69
2023-07-03T03:12:04.095Z,53.93
2023-07-03T03:13:04.143Z,54.27
2023-07-03T03:14:04.219Z,54.23
2023-07-03T03:15:04.273Z,54.37
2023-07-03T03:16:04.321Z,54.26
2023-07-03T03:17:04.383Z,54.22
2023-07-03T03:18:04.523Z,54.02
2023-07-03T03:19:04.482Z,53.89
2023-07-03T03:20:04.520Z,54.21
2023-07-03T03:21:04.530Z,53.89
2023-07-03T03:22:04.517Z,54.20
2023-07-03T03:23:04.557Z,54.14
2023-07-03T03:24:04.559Z,53.99
2023-07-03T03:25:04.584Z,53.84
2023-07-03T03:26:04.597Z,54.03
2023-07-03T03:27:04.625Z,53.82
2023-07-03T03:28:04.688Z,53.68
2023-07-03T03:29:04.702Z,53.60
2023-07-03T03:30:04.739Z,53.64
2023-07-03T03:31:04.807Z,53.85
2023-07-03T03:32:04.759Z,53.97
2023-07-03T03:33:04.768Z,54.37
2023-07-03T03:34:04.859Z,54.66
2023-07-03T03:35:05.007Z,54.80
2023-07-03T03:36:04.918Z,54.46
2023-07-03T03:37:04.959Z,54.26
2023-07-03T03:38:05.001Z,54.14
2023-07-03T03:39:04.990Z,53.61
2023-07-03T03:40:04.991Z,53.05
2023-07-03T03:41:05.024Z,53.00
2023-07-03T03:42:05.034Z,52.43
2023-07-03T03:43:05.030Z,52.81
2023-07-03T03:44:05.034Z,52.48
2023-07-03T03:45:05.055Z,52.29
2023-07-03T03:46:05.053Z,52.37
2023-07-03T03:47:05.050Z,52.68
2023-07-03T03:48:05.216Z,52.51
2023-07-03T03:49:05.048Z,52.53
2023-07-03T03:50:05.078Z,52.64
2023-07-03T03:51:05.073Z,52.92
2023-07-03T03:52:05.100Z,52.01
2023-07-03T03:53:05.150Z,52.32
2023-07-03T03:54:05.153Z,52.76
2023-07-03T03:55:05.160Z,52.11
2023-07-03T03:56:05.193Z,52.11
2023-07-03T03:57:05.281Z,52.27
2023-07-03T03:58:05.256Z,52.67
2023-07-03T03:59:05.271Z,52.54
2023-07-03T04:00:05.262Z,52.66
2023-07-03T04:01:05.277Z,52.82
2023-07-03T04:02:05.302Z,52.62
2023-07-03T04:03:05.297Z,52.60
2023-07-03T04:04:05.284Z,52.69
2023-07-03T04:05:05.301Z,52.83
2023-07-03T04:06:05.302Z,52.81
2023-07-03T04:07:05.304Z,52.77
2023-07-03T04:08:05.358Z,52.99
2023-07-03T04:09:05.313Z,52.97
2023-07-03T04:10:05.302Z,52.90
2023-07-03T04:11:05.334Z,52.99
2023-07-03T04:12:05.317Z,53.06
2023-07-03T04:13:05.368Z,53.24
2023-07-03T04:14:05.368Z,53.68
2023-07-03T04:15:05.382Z,54.16
2023-07-03T04:16:05.371Z,54.77
2023-07-03T04:17:05.346Z,55.20
2023-07-03T04:18:05.354Z,55.15
2023-07-03T04:19:05.353Z,55.32
2023-07-03T04:20:05.372Z,54.88
2023-07-03T04:21:05.338Z,54.96
2023-07-03T04:22:05.351Z,55.50
2023-07-03T04:23:05.347Z,55.37
2023-07-03T04:24:05.396Z,54.95
2023-07-03T04:25:05.339Z,54.81
2023-07-03T04:26:05.351Z,54.66
2023-07-03T04:27:05.363Z,54.47
2023-07-03T04:28:05.355Z,54.27
2023-07-03T04:29:05.356Z,54.43
2023-07-03T04:30:05.353Z,53.72
2023-07-03T04:31:05.387Z,53.51
2023-07-03T04:32:05.404Z,53.85
2023-07-03T04:33:05.418Z,53.44
2023-07-03T04:34:05.394Z,53.19
2023-07-03T04:35:05.430Z,53.33
2023-07-03T04:36:05.410Z,53.22
2023-07-03T04:37:05.513Z,53.11
2023-07-03T04:38:05.436Z,53.23
2023-07-03T04:39:05.421Z,53.26
2023-07-03T04:40:05.474Z,53.09
2023-07-03T04:41:05.448Z,53.10
2023-07-03T04:42:05.456Z,53.18
2023-07-03T04:43:05.446Z,53.06
2023-07-03T04:44:05.454Z,52.58
2023-07-03T04:45:05.462Z,52.86
2023-07-03T04:46:05.499Z,52.93
2023-07-03T04:47:05.457Z,52.78
2023-07-03T04:48:05.473Z,52.79
2023-07-03T04:49:05.428Z,52.73
2023-07-03T04:50:05.457Z,52.72
2023-07-03T04:51:05.474Z,52.68
2023-07-03T04:52:05.500Z,52.44
2023-07-03T04:53:05.482Z,52.32
2023-07-03T04:54:05.470Z,52.26
2023-07-03T04:55:05.517Z,52.27
2023-07-03T04:56:05.496Z,52.32
2023-07-03T04:57:05.540Z,52.51
2023-07-03T04:58:05.488Z,52.41
2023-07-03T04:59:05.507Z,52.69
2023-07-03T05:00:05.537Z,53.16
2023-07-03T05:02:24.947Z,53.42
2023-07-03T05:03:24.957Z,53.50
2023-07-03T05:04:24.848Z,53.37
2023-07-03T05:05:24.777Z,53.42
2023-07-03T05:06:24.877Z,53.57
2023-07-03T05:07:24.768Z,53.79
2023-07-03T05:08:24.750Z,53.59
2023-07-03T05:09:24.774Z,53.48
2023-07-03T05:10:24.774Z,53.86
2023-07-03T05:11:24.767Z,54.02
2023-07-03T05:12:24.771Z,54.06
2023-07-03T05:13:24.742Z,54.53
2023-07-03T05:14:24.758Z,54.40
2023-07-03T05:15:24.733Z,54.50
2023-07-03T05:16:24.868Z,54.34
2023-07-03T05:17:24.742Z,54.30
2023-07-03T05:18:24.664Z,54.32
2023-07-03T05:19:24.700Z,54.57
2023-07-03T05:20:24.684Z,54.62
2023-07-03T05:21:24.789Z,54.36
2023-07-03T05:22:24.685Z,54.51
2023-07-03T05:23:24.633Z,54.51
2023-07-03T05:24:24.692Z,54.28
2023-07-03T05:25:24.717Z,53.81
2023-07-03T05:26:24.850Z,54.13
2023-07-03T05:27:24.738Z,53.98
2023-07-03T05:28:24.733Z,53.51
2023-07-03T05:29:24.765Z,53.84
2023-07-03T05:30:24.760Z,53.71
2023-07-03T05:31:25.019Z,54.01
2023-07-03T05:32:24.980Z,54.00
2023-07-03T05:33:24.963Z,54.16
2023-07-03T05:34:24.990Z,54.52
2023-07-03T05:35:24.979Z,54.32
2023-07-03T05:36:25.492Z,54.23
2023-07-03T05:37:25.101Z,54.22
2023-07-03T05:38:25.300Z,54.26
2023-07-03T05:39:25.245Z,54.36
2023-07-03T05:40:25.340Z,54.20
2023-07-03T05:41:25.939Z,54.13
2023-07-03T05:42:27.612Z,54.38
2023-07-03T05:43:25.450Z,54.43
2023-07-03T05:44:25.696Z,54.31
2023-07-03T05:46:52.871Z,54.61
2023-07-03T05:47:45.297Z,54.57
2023-07-03T05:48:45.290Z,54.56
2023-07-03T05:49:45.324Z,54.61
2023-07-03T05:50:45.552Z,54.78
2023-07-03T05:51:45.151Z,54.82
2023-07-03T05:52:45.151Z,54.84
2023-07-03T05:53:45.129Z,54.91
2023-07-03T05:54:45.154Z,54.67
2023-07-03T05:55:45.121Z,54.27
2023-07-03T05:56:45.434Z,54.38
2023-07-03T05:57:45.122Z,54.74
2023-07-03T05:58:45.245Z,54.86
2023-07-03T05:59:45.109Z,54.33
2023-07-03T06:00:45.161Z,54.35
2023-07-03T06:01:46.697Z,54.21
2023-07-03T06:02:45.071Z,54.08
2023-07-03T06:03:45.186Z,54.26
2023-07-03T06:04:45.212Z,54.38
2023-07-03T06:05:45.239Z,54.43
2023-07-03T06:06:45.447Z,54.11
2023-07-03T06:07:45.350Z,53.87
2023-07-03T06:08:45.364Z,53.96
2023-07-03T06:09:45.357Z,54.32
2023-07-03T06:10:45.461Z,54.20
2023-07-03T06:11:45.417Z,54.17
2023-07-03T06:12:45.452Z,54.24
2023-07-03T06:13:46.416Z,54.48
2023-07-03T06:14:45.448Z,54.37
2023-07-03T06:15:45.540Z,54.61
2023-07-03T06:16:45.971Z,54.58
2023-07-03T06:17:45.702Z,54.83
2023-07-03T06:18:46.486Z,54.52
2023-07-03T06:19:45.643Z,54.44
2023-07-03T06:20:45.600Z,54.75
2023-07-03T06:21:45.923Z,54.85
2023-07-03T06:22:45.666Z,55.06
2023-07-03T06:23:45.743Z,54.93
2023-07-03T06:24:45.715Z,54.33
2023-07-03T06:25:45.729Z,54.66
2023-07-03T06:26:45.948Z,54.79
2023-07-03T06:27:45.799Z,54.96
2023-07-03T06:28:45.803Z,54.84
2023-07-03T06:29:45.861Z,54.24
2023-07-03T06:30:46.750Z,54.23
2023-07-03T06:31:45.952Z,54.20
2023-07-03T06:32:45.964Z,54.44
2023-07-03T06:33:45.922Z,54.12
2023-07-03T06:34:45.876Z,53.65
2023-07-03T06:35:46.077Z,53.21
2023-07-03T06:36:46.451Z,53.62
2023-07-03T06:37:46.085Z,53.84
2023-07-03T06:38:46.011Z,54.02
2023-07-03T06:39:46.085Z,53.16
2023-07-03T06:40:46.173Z,53.18
2023-07-03T06:41:46.462Z,53.84
2023-07-03T06:42:46.062Z,54.33
2023-07-03T06:43:46.084Z,53.20
2023-07-03T06:44:46.135Z,53.62
2023-07-03T06:45:46.117Z,53.85
2023-07-03T06:46:46.163Z,53.30
2023-07-03T06:47:46.147Z,53.25
2023-07-03T06:48:46.174Z,52.68
2023-07-03T06:49:46.142Z,53.31
2023-07-03T06:50:46.101Z,53.01
2023-07-03T06:51:46.413Z,53.37
2023-07-03T06:52:46.258Z,52.99
2023-07-03T06:53:47.316Z,53.49
2023-07-03T06:54:46.343Z,51.89
2023-07-03T06:55:46.398Z,50.86
2023-07-03T06:56:47.081Z,51.69
2023-07-03T06:57:46.510Z,52.42
2023-07-03T06:58:46.566Z,51.81
2023-07-03T06:59:46.629Z,52.30
2023-07-03T07:00:46.669Z,50.20
2023-07-03T07:01:46.994Z,49.28
2023-07-03T07:02:46.786Z,49.88
2023-07-03T07:03:47.500Z,50.27
2023-07-03T07:04:47.050Z,50.55
2023-07-03T07:05:47.088Z,49.81
2023-07-03T07:06:48.052Z,49.45
2023-07-03T07:07:47.303Z,49.44
2023-07-03T07:08:47.071Z,49.75
2023-07-03T07:09:47.233Z,49.99
2023-07-03T07:10:47.223Z,49.25
2023-07-03T07:11:49.139Z,49.75
2023-07-03T07:12:49.068Z,50.37
2023-07-03T07:13:47.206Z,49.89
2023-07-03T07:14:48.267Z,49.22
2023-07-03T07:15:47.122Z,49.76
2023-07-03T07:16:47.513Z,49.47
2023-07-03T07:17:52.317Z,49.69
2023-07-03T07:18:48.214Z,49.96
2023-07-03T07:19:47.123Z,50.02
2023-07-03T07:20:47.138Z,50.03
2023-07-03T07:21:49.024Z,49.38
2023-07-03T07:22:47.149Z,48.44
2023-07-03T07:23:47.184Z,48.48
2023-07-03T07:24:48.223Z,48.56
2023-07-03T07:25:47.194Z,48.28
2023-07-03T07:26:47.483Z,48.20
2023-07-03T07:27:47.092Z,48.20
2023-07-03T07:28:47.085Z,48.90
2023-07-03T07:29:47.071Z,48.77
2023-07-03T07:30:47.072Z,49.13
2023-07-03T07:31:47.472Z,48.43
2023-07-03T07:32:47.081Z,47.32
2023-07-03T07:33:47.022Z,46.62
2023-07-03T07:34:47.027Z,46.80
2023-07-03T07:35:47.099Z,46.63
2023-07-03T07:36:47.447Z,46.43
2023-07-03T07:37:47.255Z,46.28
2023-07-03T07:38:47.322Z,47.02
2023-07-03T07:39:47.359Z,47.56
2023-07-03T07:40:47.361Z,46.72
2023-07-03T07:41:47.642Z,46.75
2023-07-03T07:42:47.445Z,46.70
2023-07-03T07:43:47.598Z,46.38
2023-07-03T07:44:47.591Z,46.80
2023-07-03T07:45:48.306Z,45.77
2023-07-03T07:46:48.269Z,45.86
2023-07-03T07:47:47.751Z,46.11
2023-07-03T07:48:47.702Z,47.33
2023-07-03T07:49:48.482Z,48.02
2023-07-03T07:50:47.750Z,48.36
2023-07-03T07:51:47.874Z,49.49
2023-07-03T07:52:48.109Z,49.47
2023-07-03T07:53:47.821Z,48.52
2023-07-03T07:54:47.770Z,47.99
2023-07-03T07:55:47.851Z,48.09
2023-07-03T07:56:47.771Z,48.41
2023-07-03T07:57:47.869Z,48.31
2023-07-03T07:58:47.812Z,48.41
2023-07-03T07:59:48.165Z,47.86
2023-07-03T08:00:47.755Z,47.66
2023-07-03T08:01:47.887Z,47.99
2023-07-03T08:02:47.939Z,48.11
2023-07-03T08:03:47.975Z,47.41
2023-07-03T08:04:47.907Z,46.05
2023-07-03T08:05:48.041Z,46.08
2023-07-03T08:06:47.960Z,46.42
2023-07-03T08:07:48.464Z,46.26
2023-07-03T08:08:47.961Z,46.02
2023-07-03T08:09:48.030Z,45.97
2023-07-03T08:10:48.040Z,44.93
2023-07-03T08:11:48.036Z,45.52
2023-07-03T08:12:48.434Z,44.75
2023-07-03T08:13:48.662Z,45.26
2023-07-03T08:14:48.156Z,45.39
2023-07-03T08:15:48.227Z,44.59
2023-07-03T08:16:48.388Z,43.74
2023-07-03T08:17:48.570Z,44.46
2023-07-03T08:18:50.078Z,45.51
2023-07-03T08:19:48.274Z,45.81
2023-07-03T08:20:48.291Z,45.31
2023-07-03T08:21:48.276Z,45.33
2023-07-03T08:22:48.467Z,46.69
2023-07-03T08:23:48.340Z,44.89
2023-07-03T08:24:48.370Z,44.06
2023-07-03T08:25:48.637Z,44.28
2023-07-03T08:26:48.457Z,44.16
2023-07-03T08:27:48.483Z,44.51
2023-07-03T08:28:48.498Z,46.07
2023-07-03T08:29:48.521Z,46.64
2023-07-03T08:30:48.642Z,46.80
2023-07-03T08:31:48.672Z,45.94
2023-07-03T08:32:49.016Z,46.35
2023-07-03T08:33:48.726Z,46.65
2023-07-03T08:37:49.084Z,46.86
2023-07-03T08:38:48.784Z,46.74
2023-07-03T08:39:48.804Z,46.29
2023-07-03T08:40:48.909Z,46.09
2023-07-03T08:41:48.721Z,45.77
2023-07-03T08:42:48.959Z,45.43
2023-07-03T08:43:48.706Z,44.91
2023-07-03T08:44:48.719Z,45.26
2023-07-03T08:45:48.743Z,45.42
2023-07-03T08:47:01.941Z,45.79
2023-07-03T08:47:49.693Z,45.41
2023-07-03T08:48:48.667Z,45.57
2023-07-03T08:49:48.640Z,44.96
2023-07-03T08:50:48.614Z,44.75
2023-07-03T08:51:48.622Z,43.75
2023-07-03T08:52:49.050Z,43.60
2023-07-03T08:53:48.629Z,43.61
2023-07-03T08:54:48.685Z,43.90
2023-07-03T08:55:48.661Z,44.05
2023-07-03T08:56:48.609Z,45.11
2023-07-03T08:57:49.955Z,45.32
2023-07-03T08:58:48.642Z,46.58
2023-07-03T08:59:48.673Z,46.11
2023-07-03T09:00:48.936Z,45.68
2023-07-03T09:01:48.858Z,45.59
2023-07-03T09:02:48.872Z,45.02
2023-07-03T09:03:48.898Z,45.28
2023-07-03T09:04:49.244Z,45.40
2023-07-03T09:05:49.199Z,45.36
2023-07-03T09:06:48.929Z,45.23
2023-07-03T09:07:49.001Z,45.14
2023-07-03T09:08:49.036Z,46.12
2023-07-03T09:09:49.063Z,46.58
2023-07-03T09:10:49.120Z,45.70
2023-07-03T09:11:49.540Z,45.80
2023-07-03T09:12:49.172Z,45.18
2023-07-03T09:13:49.207Z,46.56
2023-07-03T09:14:49.240Z,46.74
2023-07-03T09:15:49.532Z,44.42
2023-07-03T09:16:49.438Z,44.77
2023-07-03T09:17:49.593Z,44.71
2023-07-03T09:18:49.270Z,44.22
2023-07-03T09:19:49.313Z,44.93
2023-07-03T09:20:49.604Z,44.69
2023-07-03T09:21:49.401Z,44.40
2023-07-03T09:22:49.512Z,44.08
2023-07-03T09:23:49.484Z,42.36
2023-07-03T09:24:50.402Z,43.39
2023-07-03T09:25:50.004Z,40.64
2023-07-03T09:26:49.727Z,41.22
2023-07-03T09:27:50.042Z,42.42
2023-07-03T09:28:49.618Z,42.15
2023-07-03T09:29:50.024Z,42.78
2023-07-03T09:30:50.187Z,43.70
2023-07-03T09:32:50.232Z,42.19
2023-07-03T09:33:49.873Z,40.94
2023-07-03T09:34:49.845Z,42.30
2023-07-03T09:35:50.072Z,41.28
2023-07-03T09:36:49.901Z,40.42
2023-07-03T09:37:50.021Z,40.73
2023-07-03T09:38:50.021Z,43.05
2023-07-03T09:39:50.071Z,40.15
2023-07-03T09:40:50.146Z,39.71
2023-07-03T09:41:50.125Z,39.80
2023-07-03T09:42:50.526Z,39.42
2023-07-03T09:43:50.156Z,41.25
2023-07-03T09:44:50.221Z,40.07
2023-07-03T09:45:50.356Z,40.48
2023-07-03T09:46:50.318Z,40.57
2023-07-03T09:47:50.655Z,40.60
2023-07-03T09:48:50.392Z,39.63
2023-07-03T09:49:50.551Z,39.53
2023-07-03T09:51:05.698Z,39.90
2023-07-03T09:51:51.492Z,39.35
2023-07-03T09:53:03.549Z,41.69
2023-07-03T09:53:51.395Z,41.99
2023-07-03T09:54:50.390Z,41.18
2023-07-03T09:55:50.521Z,41.65
2023-07-03T09:56:50.389Z,39.88
2023-07-03T09:57:50.487Z,41.41
2023-07-03T09:58:50.345Z,40.94
2023-07-03T09:59:50.364Z,41.25
2023-07-03T10:00:50.557Z,39.64
2023-07-03T10:03:50.539Z,39.48
2023-07-03T10:06:50.340Z,39.96
2023-07-03T10:07:51.192Z,40.51
2023-07-03T10:08:50.447Z,39.60
2023-07-03T10:11:50.385Z,41.04
2023-07-03T10:12:50.517Z,39.46
2023-07-03T10:13:50.250Z,40.75
2023-07-03T10:14:50.263Z,39.69
2023-07-03T10:15:50.367Z,38.72
2023-07-03T10:16:50.357Z,39.15
2023-07-03T10:17:50.374Z,39.21
2023-07-03T10:18:50.252Z,39.49
2023-07-03T10:19:50.203Z,38.68
2023-07-03T10:20:50.288Z,38.74
2023-07-03T10:21:50.343Z,39.14
2023-07-03T10:22:50.224Z,41.11
2023-07-03T10:23:50.221Z,39.49
2023-07-03T10:24:50.228Z,39.30
2023-07-03T10:25:50.519Z,38.11
2023-07-03T10:26:50.185Z,39.25
2023-07-03T10:27:50.145Z,39.73
2023-07-03T10:28:50.500Z,39.36
2023-07-03T10:29:51.141Z,40.00
2023-07-03T10:30:50.161Z,39.67
2023-07-03T10:31:50.220Z,38.49
2023-07-03T10:32:50.150Z,39.31
2023-07-03T10:33:50.486Z,39.51
2023-07-03T10:34:50.137Z,39.56
2023-07-03T10:35:50.612Z,40.31
2023-07-03T10:36:50.122Z,39.11
2023-07-03T10:37:50.167Z,39.39
2023-07-03T10:38:50.536Z,40.13
2023-07-03T10:39:50.127Z,38.52
2023-07-03T10:40:50.396Z,37.58
2023-07-03T10:41:50.128Z,37.74
2023-07-03T10:42:50.084Z,37.55
2023-07-03T10:43:50.062Z,38.08
2023-07-03T10:44:50.058Z,38.27
2023-07-03T10:45:50.508Z,38.52
2023-07-03T10:46:50.095Z,39.09
2023-07-03T10:47:50.051Z,37.79
2023-07-03T10:48:50.025Z,37.89
2023-07-03T10:49:49.981Z,37.66
2023-07-03T10:50:50.239Z,38.30
2023-07-03T10:51:50.021Z,37.74
2023-07-03T10:52:50.059Z,38.65
2023-07-03T10:53:50.057Z,38.14
2023-07-03T10:54:50.065Z,37.70
2023-07-03T10:55:50.273Z,37.36
2023-07-03T10:56:49.991Z,37.88
2023-07-03T10:57:49.942Z,38.03
2023-07-03T10:58:50.540Z,38.84
2023-07-03T10:59:49.959Z,38.45
2023-07-03T11:00:49.955Z,38.38
2023-07-03T11:01:50.129Z,38.80
2023-07-03T11:02:50.006Z,38.67
2023-07-03T11:04:01.066Z,39.43
2023-07-03T11:04:51.068Z,38.60
2023-07-03T11:05:50.305Z,39.33
2023-07-03T11:06:50.003Z,38.50
2023-07-03T11:07:50.007Z,38.37
2023-07-03T11:08:49.964Z,38.18
2023-07-03T11:09:50.027Z,39.53
2023-07-03T11:10:49.982Z,39.56
2023-07-03T11:11:49.971Z,39.02
2023-07-03T11:12:49.953Z,37.85
2023-07-03T11:13:50.008Z,38.16
2023-07-03T11:14:49.944Z,38.72
2023-07-03T11:15:50.184Z,39.33
2023-07-03T11:16:50.040Z,37.83
2023-07-03T11:19:49.993Z,37.49
2023-07-03T11:22:49.910Z,37.78
2023-07-03T11:23:50.006Z,37.09
2023-07-03T11:24:49.925Z,38.19
2023-07-03T11:28:49.907Z,37.58
2023-07-03T11:29:49.894Z,37.92
2023-07-03T11:30:50.263Z,38.00
2023-07-03T11:31:50.908Z,38.71
2023-07-03T11:32:49.853Z,37.85
2023-07-03T11:36:51.865Z,36.70
2023-07-03T11:39:49.860Z,38.38
2023-07-03T11:40:50.055Z,38.07
2023-07-03T11:43:49.783Z,36.05
2023-07-03T11:44:49.847Z,36.63
2023-07-03T11:45:50.091Z,36.90
2023-07-03T11:46:49.797Z,36.34
2023-07-03T11:47:49.767Z,36.64
2023-07-03T11:48:49.814Z,37.64
2023-07-03T11:49:49.748Z,37.61
2023-07-03T11:50:49.746Z,36.49
2023-07-03T11:51:49.733Z,37.09
2023-07-03T11:52:49.708Z,38.04
2023-07-03T11:53:49.769Z,37.83
2023-07-03T11:54:49.717Z,38.35
2023-07-03T11:55:50.017Z,39.01
2023-07-03T11:56:49.680Z,37.70
2023-07-03T11:57:53.040Z,36.50
2023-07-03T11:58:50.728Z,38.24
2023-07-03T11:59:49.650Z,36.43
2023-07-03T12:00:49.696Z,36.32
2023-07-03T12:01:49.668Z,36.45
2023-07-03T12:02:49.720Z,35.80
2023-07-03T12:03:49.708Z,36.01
2023-07-03T12:04:50.345Z,36.05
2023-07-03T12:05:49.914Z,36.05
2023-07-03T12:06:49.616Z,36.37
2023-07-03T12:07:49.636Z,35.47
2023-07-03T12:08:49.633Z,35.36
2023-07-03T12:09:49.618Z,35.99
2023-07-03T12:10:49.588Z,35.75
2023-07-03T12:11:49.662Z,36.48
2023-07-03T12:12:49.641Z,36.79
2023-07-03T12:13:49.854Z,36.96
2023-07-03T12:14:49.768Z,35.70
2023-07-03T12:15:49.952Z,36.30
2023-07-03T12:16:49.854Z,36.61
2023-07-03T12:17:49.884Z,35.61
2023-07-03T12:18:49.925Z,35.11
2023-07-03T12:19:49.901Z,35.13
2023-07-03T12:20:49.909Z,35.02
2023-07-03T12:21:49.906Z,36.31
2023-07-03T12:22:49.920Z,35.05
2023-07-03T12:23:49.915Z,35.53
2023-07-03T12:24:49.933Z,35.31
2023-07-03T12:25:50.287Z,35.36
2023-07-03T12:26:50.058Z,36.01
2023-07-03T12:27:50.109Z,36.85
2023-07-03T12:28:50.099Z,35.72
2023-07-03T12:29:50.164Z,34.74
2023-07-03T12:30:50.191Z,35.84
2023-07-03T12:31:50.177Z,35.14
2023-07-03T12:32:50.233Z,36.04
2023-07-03T12:33:50.294Z,34.98
2023-07-03T12:34:50.331Z,34.81
2023-07-03T12:35:50.541Z,33.76
2023-07-03T12:36:54.222Z,34.24
2023-07-03T12:37:51.453Z,34.45
2023-07-03T12:38:50.430Z,35.02
2023-07-03T12:39:50.369Z,35.41
2023-07-03T12:40:50.450Z,36.00
2023-07-03T12:41:50.351Z,35.56
2023-07-03T12:42:50.409Z,35.00
2023-07-03T12:44:03.465Z,35.13
2023-07-03T12:44:51.386Z,34.54
2023-07-03T12:45:50.608Z,34.28
2023-07-03T12:46:50.340Z,34.53
2023-07-03T12:47:50.377Z,34.47
2023-07-03T12:48:50.335Z,34.67
2023-07-03T12:49:50.371Z,34.21
2023-07-03T12:50:50.763Z,34.27
2023-07-03T12:51:50.314Z,33.84
2023-07-03T12:52:50.310Z,33.62
2023-07-03T12:53:50.333Z,34.51
2023-07-03T12:54:53.465Z,34.74
2023-07-03T12:55:51.436Z,34.04
2023-07-03T12:56:50.284Z,33.67
2023-07-03T12:57:50.261Z,33.41
2023-07-03T12:58:50.266Z,32.86
2023-07-03T12:59:50.268Z,33.15
2023-07-03T13:00:50.315Z,33.05
2023-07-03T13:01:50.223Z,34.08
2023-07-03T13:02:50.241Z,33.53
2023-07-03T13:03:50.228Z,33.64
2023-07-03T13:04:50.290Z,34.01
2023-07-03T13:05:50.656Z,33.01
2023-07-03T13:06:50.217Z,34.00
2023-07-03T13:07:50.197Z,34.02
2023-07-03T13:08:50.233Z,33.81
2023-07-03T13:09:50.367Z,33.71
2023-07-03T13:10:50.234Z,34.80
2023-07-03T13:11:50.241Z,35.00
2023-07-03T13:12:50.296Z,35.61
2023-07-03T13:13:50.380Z,35.10
2023-07-03T13:14:50.411Z,35.14
2023-07-03T13:15:50.694Z,34.40
2023-07-03T13:16:50.533Z,34.23
2023-07-03T13:17:50.561Z,34.28
2023-07-03T13:18:50.606Z,34.85
2023-07-03T13:19:50.601Z,33.30